createdAt,value
2018-04-11T00:01:12.871Z,6.38
2018-04-11T00:06:13.840Z,6.23
2018-04-11T00:11:14.809Z,6.43
2018-04-11T00:16:15.790Z,6.32
2018-04-11T00:21:16.764Z,6.30
2018-04-11T00:26:17.716Z,6.21
2018-04-11T00:31:18.675Z,6.13
2018-04-11T00:36:19.640Z,6.36
2018-04-11T00:41:20.615Z,6.27
2018-04-11T00:46:21.647Z,6.02
2018-04-11T00:51:22.586Z,6.38
2018-04-11T00:56:23.583Z,6.11
2018-04-11T01:01:24.534Z,6.45
2018-04-11T01:06:25.525Z,6.42
2018-04-11T01:11:26.501Z,6.33
2018-04-11T01:16:27.455Z,6.12
2018-04-11T01:21:28.406Z,6.17
2018-04-11T01:26:29.399Z,6.11
2018-04-11T01:31:30.356Z,6.18
2018-04-11T01:36:31.331Z,5.89
2018-04-11T01:41:32.305Z,5.99
2018-04-11T01:46:33.270Z,6.25
2018-04-11T01:51:34.236Z,5.84
2018-04-11T01:56:35.204Z,5.75
2018-04-11T02:01:36.184Z,5.80
2018-04-11T02:06:37.122Z,5.88
2018-04-11T02:11:38.108Z,5.99
2018-04-11T02:16:39.061Z,6.06
2018-04-11T02:21:40.037Z,5.90
2018-04-11T02:26:41.003Z,5.76
2018-04-11T02:31:41.953Z,5.55
2018-04-11T02:36:42.908Z,5.70
2018-04-11T02:41:43.859Z,5.99
2018-04-11T02:46:44.821Z,5.99
2018-04-11T02:51:45.784Z,5.77
2018-04-11T02:56:46.785Z,5.40
2018-04-11T03:01:47.766Z,5.56
2018-04-11T03:06:48.735Z,5.47
2018-04-11T03:11:49.696Z,5.69
2018-04-11T03:16:50.660Z,5.66
2018-04-11T03:21:51.646Z,5.40
2018-04-11T03:26:52.592Z,5.87
2018-04-11T03:32:00.583Z,5.88
2018-04-11T03:37:01.553Z,5.51
2018-04-11T03:42:02.517Z,5.75
2018-04-11T03:47:03.443Z,5.62
2018-04-11T03:52:04.407Z,5.52
2018-04-11T03:57:05.391Z,5.48
2018-04-11T04:02:06.361Z,5.63
2018-04-11T04:07:07.345Z,5.57
2018-04-11T04:12:08.284Z,5.55
2018-04-11T04:17:21.410Z,5.91
2018-04-11T04:22:22.379Z,5.80
2018-04-11T04:27:23.344Z,5.90
2018-04-11T04:32:24.286Z,5.86
2018-04-11T04:37:25.240Z,5.62
2018-04-11T04:42:26.253Z,5.61
2018-04-11T04:47:27.217Z,5.35
2018-04-11T04:52:28.179Z,5.77
2018-04-11T04:57:29.164Z,5.96
2018-04-11T05:02:30.132Z,5.99
2018-04-11T05:07:31.090Z,5.98
2018-04-11T05:12:32.055Z,5.68
2018-04-11T05:17:33.044Z,5.81
2018-04-11T05:22:33.988Z,6.09
2018-04-11T05:27:34.953Z,6.21
2018-04-11T05:32:35.947Z,6.29
2018-04-11T05:37:36.912Z,6.19
2018-04-11T05:42:37.896Z,6.19
2018-04-11T05:47:38.887Z,6.15
2018-04-11T05:52:39.834Z,6.32
2018-04-11T05:57:40.820Z,6.34
2018-04-11T06:02:41.768Z,6.29
2018-04-11T06:07:42.772Z,6.11
2018-04-11T06:12:43.736Z,6.18
2018-04-11T06:17:44.685Z,6.09
2018-04-11T06:22:45.665Z,6.28
2018-04-11T06:27:46.626Z,5.97
2018-04-11T06:32:47.564Z,6.07
2018-04-11T06:37:48.507Z,6.15
2018-04-11T06:42:49.475Z,6.28
2018-04-11T06:47:50.503Z,6.41
2018-04-11T06:52:51.465Z,6.47
2018-04-11T06:57:52.477Z,6.52
2018-04-11T07:02:53.461Z,6.19
2018-04-11T07:07:54.433Z,6.30
2018-04-11T07:12:55.402Z,6.55
2018-04-11T07:17:56.361Z,6.63
2018-04-11T07:22:57.304Z,6.20
2018-04-11T07:27:58.261Z,6.31
2018-04-11T07:32:59.230Z,6.50
2018-04-11T07:38:00.205Z,6.48
2018-04-11T07:43:01.226Z,6.36
2018-04-11T07:48:02.225Z,6.43
2018-04-11T07:53:03.202Z,6.50
2018-04-11T07:58:04.204Z,6.51
2018-04-11T08:03:05.158Z,6.56
2018-04-11T08:08:06.130Z,6.59
2018-04-11T08:13:07.092Z,6.41
2018-04-11T08:18:08.044Z,6.30
2018-04-11T08:23:08.999Z,6.48
2018-04-11T08:28:09.963Z,6.69
2018-04-11T08:33:10.937Z,6.45
2018-04-11T08:38:11.895Z,6.67
2018-04-11T08:43:12.861Z,6.88
2018-04-11T08:48:13.791Z,6.59
2018-04-11T08:53:14.774Z,6.52
2018-04-11T08:58:15.776Z,6.41
2018-04-11T09:03:16.772Z,6.72
2018-04-11T09:08:17.946Z,6.71
2018-04-11T09:13:18.895Z,6.54
2018-04-11T09:18:19.917Z,6.49
2018-04-11T09:23:20.957Z,6.51
2018-04-11T09:28:21.917Z,6.06
2018-04-11T09:33:22.906Z,6.41
2018-04-11T09:38:23.906Z,6.30
2018-04-11T09:43:24.924Z,6.35
2018-04-11T09:48:25.938Z,6.34
2018-04-11T09:53:26.892Z,6.50
2018-04-11T09:58:27.912Z,6.27
2018-04-11T10:03:28.896Z,6.48
2018-04-11T10:08:29.871Z,5.91
2018-04-11T10:13:30.869Z,6.38
2018-04-11T10:18:31.873Z,6.55
2018-04-11T10:23:32.867Z,5.96
2018-04-11T10:28:33.864Z,6.36
2018-04-11T10:33:34.841Z,6.37
2018-04-11T10:38:35.815Z,6.67
2018-04-11T10:43:36.977Z,6.75
2018-04-11T10:48:37.947Z,6.69
2018-04-11T10:53:38.901Z,6.63
2018-04-11T10:58:39.898Z,6.58
2018-04-11T11:03:40.926Z,6.93
2018-04-11T11:08:41.880Z,6.81
2018-04-11T11:13:42.882Z,7.04
2018-04-11T11:18:43.865Z,6.87
2018-04-11T11:23:44.852Z,6.94
2018-04-11T11:28:45.844Z,6.61
2018-04-11T11:33:46.867Z,6.83
2018-04-11T11:38:47.902Z,6.95
2018-04-11T11:43:48.877Z,6.52
2018-04-11T11:48:49.853Z,7.01
2018-04-11T11:53:50.832Z,6.73
2018-04-11T11:58:51.825Z,6.99
2018-04-11T12:03:52.798Z,7.13
2018-04-11T12:08:53.755Z,6.94
2018-04-11T12:13:54.725Z,6.98
2018-04-11T12:18:55.719Z,7.31
2018-04-11T12:23:56.694Z,7.18
2018-04-11T12:28:57.647Z,7.18
2018-04-11T12:33:58.612Z,7.13
2018-04-11T12:38:59.575Z,7.34
2018-04-11T12:44:00.583Z,7.56
2018-04-11T12:49:01.592Z,7.53
2018-04-11T12:54:02.620Z,7.58
2018-04-11T12:59:03.627Z,7.38
2018-04-11T13:04:04.602Z,7.03
2018-04-11T13:09:05.573Z,7.28
2018-04-11T13:14:06.533Z,7.55
2018-04-11T13:19:07.600Z,7.36
2018-04-11T13:24:08.584Z,7.43
2018-04-11T13:29:09.572Z,7.49
2018-04-11T13:34:10.559Z,7.16
2018-04-11T13:39:11.588Z,7.23
2018-04-11T13:44:12.625Z,7.34
2018-04-11T13:49:13.630Z,7.45
2018-04-11T13:54:14.663Z,7.49
2018-04-11T13:59:15.709Z,7.47
2018-04-11T14:04:16.698Z,7.14
2018-04-11T14:09:17.701Z,7.40
2018-04-11T14:14:18.757Z,6.90
2018-04-11T14:19:19.785Z,7.19
2018-04-11T14:24:20.825Z,7.11
2018-04-11T14:29:21.841Z,7.37
2018-04-11T14:34:22.812Z,7.45
2018-04-11T14:39:23.816Z,6.92
2018-04-11T14:44:24.858Z,6.88
2018-04-11T14:49:25.856Z,6.97
2018-04-11T14:54:26.881Z,6.69
2018-04-11T14:59:27.946Z,6.86
2018-04-11T15:04:28.949Z,6.64
2018-04-11T15:09:29.959Z,6.67
2018-04-11T15:14:30.943Z,6.36
2018-04-11T15:19:31.950Z,6.34
2018-04-11T15:24:32.974Z,5.96
2018-04-11T15:29:34.024Z,6.54
2018-04-11T15:34:35.033Z,6.51
2018-04-11T15:39:36.048Z,6.12
2018-04-11T15:44:37.053Z,6.27
2018-04-11T15:49:38.043Z,6.40
2018-04-11T15:54:39.033Z,6.22
2018-04-11T15:59:40.088Z,6.04
2018-04-11T16:04:41.103Z,6.21
2018-04-11T16:09:42.106Z,6.05
2018-04-11T16:14:43.117Z,6.07
2018-04-11T16:19:44.136Z,6.13
2018-04-11T16:24:45.173Z,6.19
2018-04-11T16:29:46.180Z,6.05
2018-04-11T16:34:47.164Z,6.08
2018-04-11T16:39:48.156Z,5.78
2018-04-11T16:44:49.175Z,6.02
2018-04-11T16:49:50.178Z,6.07
2018-04-11T16:54:51.194Z,6.18
2018-04-11T16:59:52.232Z,6.16
2018-04-11T17:04:53.270Z,5.83
2018-04-11T17:09:54.309Z,5.94
2018-04-11T17:14:55.319Z,6.13
2018-04-11T17:19:56.331Z,5.99
2018-04-11T17:25:09.674Z,6.13
2018-04-11T17:30:22.931Z,6.13
2018-04-11T17:35:23.970Z,6.17
2018-04-11T17:40:25.033Z,6.10
2018-04-11T17:45:26.107Z,6.19
2018-04-11T17:50:27.190Z,6.16
2018-04-11T17:55:28.255Z,5.98
2018-04-11T18:00:29.328Z,6.05
2018-04-11T18:05:30.364Z,6.06
2018-04-11T18:10:31.425Z,5.81
2018-04-11T18:15:32.419Z,5.87
2018-04-11T18:20:33.451Z,5.98
2018-04-11T18:25:34.491Z,5.88
2018-04-11T18:30:35.496Z,5.86
2018-04-11T18:35:36.525Z,5.84
2018-04-11T18:40:37.536Z,6.08
2018-04-11T18:45:38.587Z,5.98
2018-04-11T18:50:39.659Z,6.05
2018-04-11T18:55:40.718Z,5.81
2018-04-11T19:00:41.960Z,5.82
2018-04-11T19:05:43.037Z,5.75
2018-04-11T19:10:44.079Z,5.93
2018-04-11T19:15:45.158Z,6.07
2018-04-11T19:20:46.245Z,5.74
2018-04-11T19:25:47.306Z,5.75
2018-04-11T19:30:48.454Z,5.76
2018-04-11T19:35:49.593Z,5.56
2018-04-11T19:40:50.695Z,5.82
2018-04-11T19:45:51.816Z,5.74
2018-04-11T19:50:52.884Z,5.66
2018-04-11T19:55:53.927Z,5.64
2018-04-11T20:00:54.982Z,5.49
2018-04-11T20:05:56.035Z,5.64
2018-04-11T20:10:57.029Z,5.56
2018-04-11T20:15:58.066Z,5.28
2018-04-11T20:20:59.063Z,5.43
2018-04-11T20:26:00.089Z,5.57
2018-04-11T20:31:01.109Z,5.65
2018-04-11T20:36:02.131Z,5.53
2018-04-11T20:41:03.229Z,5.50
2018-04-11T20:46:04.264Z,5.81
2018-04-11T20:51:05.274Z,5.84
2018-04-11T20:56:06.293Z,5.85
2018-04-11T21:01:07.294Z,5.47
2018-04-11T21:06:08.290Z,5.67
2018-04-11T21:11:09.337Z,5.79
2018-04-11T21:16:10.342Z,6.05
2018-04-11T21:21:11.323Z,5.95
2018-04-11T21:26:12.313Z,5.97
2018-04-11T21:31:13.333Z,5.44
2018-04-11T21:36:14.320Z,5.76
2018-04-11T21:41:15.297Z,5.70
2018-04-11T21:46:16.328Z,5.66
2018-04-11T21:51:17.318Z,5.84
2018-04-11T21:56:18.313Z,5.91
2018-04-11T22:01:19.337Z,5.89
2018-04-11T22:06:20.284Z,5.74
2018-04-11T22:11:21.315Z,5.45
2018-04-11T22:16:22.301Z,5.94
2018-04-11T22:21:23.325Z,5.69
2018-04-11T22:26:24.373Z,5.73
2018-04-11T22:31:25.320Z,5.71
2018-04-11T22:36:26.267Z,5.79
2018-04-11T22:41:27.258Z,5.85
2018-04-11T22:46:28.852Z,5.86
2018-04-11T22:51:30.124Z,5.70
2018-04-11T22:56:32.103Z,5.86
2018-04-11T23:01:33.568Z,5.85
2018-04-11T23:06:35.001Z,5.38
2018-04-11T23:11:36.907Z,5.54
2018-04-11T23:16:38.489Z,5.47
2018-04-11T23:21:40.445Z,5.74
2018-04-11T23:26:41.903Z,5.70
2018-04-11T23:31:44.330Z,5.41
2018-04-11T23:36:46.007Z,5.59
2018-04-11T23:41:47.107Z,5.87
2018-04-11T23:46:48.100Z,5.70
2018-04-11T23:51:49.056Z,5.62
2018-04-11T23:56:50.041Z,5.51
